Time;durP1;ratioP1;P1;durP2;ratioP2;P2;SDS_P1;SDS_P2;PMS_P1;PMS_P2;Temp;Humidity;BMP_temperature;BMP_pressure;BME280_temperature;BME280_humidity;BME280_pressure;Samples;Min_cycle;Max_cycle;Signal;HPM_P1;HPM_P2
2023/12/04 00:01:17;;;;;;;25.50;10.23;;;;;;;4.10;61.53;101299.66;4984642;28;124794;-80
2023/12/04 00:03:45;;;;;;;30.35;10.57;;;;;;;4.09;61.49;101287.47;4983784;28;123898;-80
2023/12/04 00:06:13;;;;;;;25.17;10.05;;;;;;;4.08;61.54;101285.72;5006300;28;113912;-80
2023/12/04 00:08:40;;;;;;;23.83;9.95;;;;;;;4.09;61.25;101287.47;4994780;28;114937;-80
2023/12/04 00:11:07;;;;;;;28.08;10.20;;;;;;;4.09;61.55;101276.13;4985554;28;124132;-80
2023/12/04 00:13:35;;;;;;;24.52;10.15;;;;;;;4.07;61.51;101267.41;5000012;28;124708;-80
2023/12/04 00:16:02;;;;;;;23.38;10.10;;;;;;;4.07;61.60;101268.28;5014550;28;113763;-80
2023/12/04 00:18:30;;;;;;;23.80;9.43;;;;;;;4.07;61.25;101263.03;4996133;28;114086;-79
2023/12/04 00:20:58;;;;;;;24.33;9.73;;;;;;;4.08;61.28;101259.50;5003790;28;123774;-79
2023/12/04 00:23:25;;;;;;;24.25;10.43;;;;;;;4.08;61.30;101264.75;4991202;28;123196;-79
2023/12/04 00:25:54;;;;;;;27.85;11.18;;;;;;;4.09;61.50;101261.25;4997883;28;115097;-80
2023/12/04 00:28:21;;;;;;;25.75;10.65;;;;;;;4.10;61.53;101257.72;4999232;28;114182;-80
2023/12/04 00:30:49;;;;;;;29.42;11.10;;;;;;;4.09;61.46;101260.41;4994870;28;124352;-79
2023/12/04 00:33:16;;;;;;;21.23;10.45;;;;;;;4.09;61.45;101256.00;4992246;28;122406;-79
2023/12/04 00:35:43;;;;;;;25.85;10.52;;;;;;;4.09;61.50;101255.16;4988948;28;115094;-79
2023/12/04 00:38:10;;;;;;;27.50;10.20;;;;;;;4.08;61.32;101254.25;4995563;28;113463;-79
2023/12/04 00:40:37;;;;;;;26.30;10.40;;;;;;;4.07;61.17;101247.31;4991738;28;124610;-80
2023/12/04 00:43:05;;;;;;;25.83;10.30;;;;;;;4.06;61.20;101256.03;4985738;28;125153;-80
2023/12/04 00:45:32;;;;;;;21.38;9.50;;;;;;;4.08;61.34;101254.25;4993828;28;115595;-80
2023/12/04 00:48:00;;;;;;;23.02;10.25;;;;;;;4.07;61.55;101252.53;5013839;28;113680;-80
2023/12/04 00:50:27;;;;;;;25.60;9.95;;;;;;;4.08;61.36;101256.88;5007471;27;123822;-80
2023/12/04 00:52:54;;;;;;;23.55;10.30;;;;;;;4.07;61.33;101252.53;4992209;28;124058;-80
2023/12/04 00:55:21;;;;;;;21.67;8.90;;;;;;;4.08;61.14;101251.66;4999071;28;114432;-80
2023/12/04 00:57:49;;;;;;;27.80;10.50;;;;;;;4.09;61.43;101239.44;4988305;28;114048;-80
2023/12/04 01:00:16;;;;;;;25.90;11.98;;;;;;;4.09;61.32;101235.03;4993670;28;124890;-80
2023/12/04 01:02:44;;;;;;;28.60;11.55;;;;;;;4.08;61.71;101238.53;4989954;28;126049;-80
2023/12/04 01:05:11;;;;;;;26.77;10.00;;;;;;;4.10;61.31;101235.91;5005839;28;113642;-80
2023/12/04 01:07:38;;;;;;;24.20;10.55;;;;;;;4.10;61.63;101231.53;4980080;28;113497;-80
2023/12/04 01:10:05;;;;;;;27.02;10.82;;;;;;;4.13;61.61;101235.03;4993052;28;122123;-80
2023/12/04 01:12:33;;;;;;;24.48;10.18;;;;;;;4.14;61.62;101226.25;4980523;28;124979;-80
2023/12/04 01:15:01;;;;;;;30.30;11.65;;;;;;;4.16;61.62;101219.22;4968353;28;115246;-80
2023/12/04 01:17:28;;;;;;;27.67;10.43;;;;;;;4.16;61.39;101219.22;4977951;28;114630;-80
2023/12/04 01:19:57;;;;;;;23.05;9.80;;;;;;;4.19;61.68;101219.22;5007574;28;123927;-80
2023/12/04 01:22:24;;;;;;;23.50;10.60;;;;;;;4.19;61.26;101213.97;4985470;28;124011;-80
2023/12/04 01:24:52;;;;;;;26.70;10.63;;;;;;;4.21;61.62;101206.94;4993243;28;114303;-80
2023/12/04 01:27:19;;;;;;;26.00;10.18;;;;;;;4.21;61.30;101201.69;4986810;28;113107;-80
2023/12/04 01:29:46;;;;;;;21.88;9.85;;;;;;;4.21;61.67;101202.56;4989165;28;123933;-80
2023/12/04 01:32:13;;;;;;;25.25;10.63;;;;;;;4.23;61.49;101205.16;4990700;28;122230;-80
2023/12/04 01:34:40;;;;;;;22.08;9.95;;;;;;;4.24;61.72;101201.69;4994467;28;113904;-80
2023/12/04 01:37:08;;;;;;;22.88;10.20;;;;;;;4.24;61.37;101202.53;4990559;28;113976;-80
2023/12/04 01:39:36;;;;;;;23.95;10.55;;;;;;;4.23;61.47;101205.16;4990660;28;124192;-80
2023/12/04 01:42:04;;;;;;;24.42;10.30;;;;;;;4.24;61.49;101196.44;4993878;28;124459;-80
2023/12/04 01:44:31;;;;;;;26.13;10.30;;;;;;;4.23;61.50;101194.69;5010520;28;114355;-80
2023/12/04 01:46:58;;;;;;;22.17;9.82;;;;;;;4.25;61.46;101192.91;4972100;28;115244;-80
2023/12/04 01:49:28;;;;;;;23.50;10.20;;;;;;;4.24;61.29;101196.44;5002638;28;124081;-80
2023/12/04 01:51:56;;;;;;;20.20;9.32;;;;;;;4.23;61.42;101190.28;4990254;28;124938;-80
2023/12/04 01:54:24;;;;;;;22.25;10.23;;;;;;;4.23;61.16;101189.44;5000378;28;113420;-80
2023/12/04 01:56:51;;;;;;;24.15;9.95;;;;;;;4.23;61.14;101192.06;4999850;28;113193;-80
2023/12/04 01:59:19;;;;;;;21.35;8.98;;;;;;;4.23;61.31;101189.44;4995937;28;123877;-79
2023/12/04 02:01:46;;;;;;;23.15;9.90;;;;;;;4.25;61.36;101182.41;4990569;28;123731;-80
2023/12/04 02:04:13;;;;;;;23.00;9.75;;;;;;;4.24;61.16;101184.19;4998658;28;114704;-80
2023/12/04 02:06:41;;;;;;;22.48;9.63;;;;;;;4.26;61.22;101184.16;5009639;28;115496;-79
2023/12/04 02:09:12;;;;;;;22.23;9.30;;;;;;;4.26;61.16;101173.69;5013878;28;123759;-80
2023/12/04 02:11:40;;;;;;;22.27;9.40;;;;;;;4.25;61.33;101177.19;4977750;28;123164;-80
2023/12/04 02:14:08;;;;;;;20.58;9.10;;;;;;;4.24;61.40;101160.59;4969092;28;113903;-80
2023/12/04 02:16:39;;;;;;;21.42;9.20;;;;;;;4.23;61.36;101168.47;4992592;28;113623;-80
2023/12/04 02:19:08;;;;;;;20.60;9.30;;;;;;;4.25;61.30;101153.59;4975658;28;123701;-80
2023/12/04 02:21:36;;;;;;;20.70;8.75;;;;;;;4.27;61.20;101162.28;4992915;28;122726;-80
2023/12/04 02:24:03;;;;;;;19.05;8.73;;;;;;;4.27;61.11;101154.41;4993201;28;114660;-80
2023/12/04 02:26:39;;;;;;;19.92;9.00;;;;;;;4.26;61.20;101147.47;4994576;28;113995;-80
2023/12/04 02:29:11;;;;;;;21.42;9.18;;;;;;;4.28;61.13;101145.69;5010337;28;124041;-80
2023/12/04 02:31:40;;;;;;;22.08;9.80;;;;;;;4.28;61.37;101143.06;4992607;28;125131;-80
2023/12/04 02:34:09;;;;;;;20.05;8.50;;;;;;;4.29;61.30;101147.41;4969354;28;113570;-80
2023/12/04 02:36:38;;;;;;;21.67;8.63;;;;;;;4.28;61.46;101135.19;4981892;28;114679;-80
2023/12/04 02:39:05;;;;;;;21.10;8.73;;;;;;;4.29;61.41;101131.66;4993392;28;124272;-80
2023/12/04 02:41:33;;;;;;;20.63;8.88;;;;;;;4.27;61.20;101126.44;4989713;28;123151;-80
2023/12/04 02:44:00;;;;;;;21.55;8.27;;;;;;;4.28;60.94;101129.94;4991511;28;114164;-80
2023/12/04 02:46:27;;;;;;;19.60;9.23;;;;;;;4.27;61.31;101120.34;4974882;28;113781;-80
2023/12/04 02:48:54;;;;;;;18.67;8.30;;;;;;;4.28;60.93;101114.22;4991969;28;122862;-80
2023/12/04 02:51:21;;;;;;;20.50;8.57;;;;;;;4.28;60.94;101114.22;5009246;28;124173;-80
2023/12/04 02:53:49;;;;;;;16.95;8.73;;;;;;;4.28;61.05;101108.97;4983956;28;114853;-80
2023/12/04 02:56:16;;;;;;;19.80;8.60;;;;;;;4.28;61.00;101114.22;4993121;28;114885;-80
2023/12/04 02:58:43;;;;;;;18.30;8.52;;;;;;;4.29;61.09;101110.69;4989986;28;123743;-80
2023/12/04 03:01:10;;;;;;;19.05;8.43;;;;;;;4.29;60.83;101105.44;4994765;28;125250;-80
2023/12/04 03:03:37;;;;;;;19.05;8.32;;;;;;;4.27;61.02;101102.84;4993436;28;114835;-79
2023/12/04 03:06:05;;;;;;;18.98;9.10;;;;;;;4.27;61.04;101096.75;4993597;28;114314;-80
2023/12/04 03:08:32;;;;;;;18.00;8.57;;;;;;;4.27;60.72;101102.00;4993510;28;124481;-80
2023/12/04 03:11:01;;;;;;;18.55;7.72;;;;;;;4.27;60.97;101094.13;4991229;28;123754;-80
2023/12/04 03:13:29;;;;;;;20.63;8.95;;;;;;;4.26;60.87;101089.78;5011850;28;113773;-80
2023/12/04 03:15:57;;;;;;;18.88;8.40;;;;;;;4.26;60.80;101095.03;5011328;28;113978;-80
2023/12/04 03:18:25;;;;;;;16.70;8.85;;;;;;;4.26;61.24;101088.03;4993067;28;123783;-80
2023/12/04 03:20:53;;;;;;;19.70;8.60;;;;;;;4.27;61.02;101086.25;4981425;28;123075;-79
2023/12/04 03:23:20;;;;;;;18.00;8.63;;;;;;;4.27;60.87;101075.78;4991832;28;114049;-79
2023/12/04 03:25:48;;;;;;;20.13;8.40;;;;;;;4.28;60.69;101077.53;4979017;28;115910;-80
2023/12/04 03:28:15;;;;;;;16.63;8.10;;;;;;;4.27;60.83;101081.00;4995186;28;125354;-80
2023/12/04 03:30:45;;;;;;;16.83;8.27;;;;;;;4.27;60.67;101075.78;4986862;28;124858;-80
2023/12/04 03:33:13;;;;;;;17.60;8.07;;;;;;;4.27;60.91;101070.53;4996237;28;114556;-80
2023/12/04 03:35:40;;;;;;;17.83;8.73;;;;;;;4.25;60.72;101072.31;4995582;28;113101;-80
2023/12/04 03:38:07;;;;;;;19.73;9.05;;;;;;;4.24;60.87;101065.34;5008603;28;123215;-80
2023/12/04 03:40:34;;;;;;;16.92;8.13;;;;;;;4.24;60.55;101060.09;4991981;28;122771;-80
2023/12/04 03:43:02;;;;;;;20.88;8.60;;;;;;;4.24;60.63;101060.09;4998496;28;115186;-80
2023/12/04 03:45:29;;;;;;;18.80;8.50;;;;;;;4.24;60.72;101054.88;5018256;28;114900;-80
2023/12/04 03:47:56;;;;;;;17.40;8.07;;;;;;;4.24;60.87;101049.63;4979937;28;124600;-80
2023/12/04 03:50:24;;;;;;;17.60;8.48;;;;;;;4.24;60.81;101044.38;5017670;28;123977;-79
2023/12/04 03:52:51;;;;;;;18.02;8.15;;;;;;;4.23;60.91;101042.63;5010242;28;114297;-80
2023/12/04 03:55:19;;;;;;;18.13;8.27;;;;;;;4.23;60.67;101037.38;5016403;28;113998;-80
2023/12/04 03:57:47;;;;;;;16.20;8.10;;;;;;;4.23;60.49;101037.38;4997378;28;123227;-80
2023/12/04 04:00:14;;;;;;;16.58;8.27;;;;;;;4.23;60.80;101032.16;4995134;28;123584;-80
2023/12/04 04:02:43;;;;;;;16.20;8.15;;;;;;;4.22;60.60;101027.78;4991920;28;115254;-80
2023/12/04 04:05:10;;;;;;;17.77;8.85;;;;;;;4.22;60.83;101035.66;4993053;28;114898;-80
2023/12/04 04:07:37;;;;;;;15.68;8.25;;;;;;;4.21;60.43;101023.44;5004042;28;123290;-80
2023/12/04 04:10:05;;;;;;;18.08;7.43;;;;;;;4.20;60.60;101021.69;4982382;28;124693;-80
2023/12/04 04:12:32;;;;;;;17.48;8.48;;;;;;;4.21;60.56;101013.81;4969647;28;113486;-79
2023/12/04 04:15:00;;;;;;;15.85;7.45;;;;;;;4.21;60.69;101018.19;4977562;28;114649;-79
2023/12/04 04:17:27;;;;;;;18.63;8.35;;;;;;;4.21;60.73;101005.09;4996406;28;123754;-80
2023/12/04 04:19:55;;;;;;;15.50;7.97;;;;;;;4.21;60.84;101007.72;4991866;28;123884;-80
2023/12/04 04:22:22;;;;;;;16.33;8.02;;;;;;;4.21;60.54;101005.09;4985589;28;113263;-80
2023/12/04 04:24:50;;;;;;;16.30;7.80;;;;;;;4.20;60.59;101000.72;4987073;28;113430;-80
2023/12/04 04:27:17;;;;;;;18.38;8.75;;;;;;;4.21;60.51;100997.22;5011657;28;123847;-80
2023/12/04 04:29:44;;;;;;;17.77;8.20;;;;;;;4.20;60.51;100995.47;5011977;28;124167;-80
2023/12/04 04:32:11;;;;;;;16.85;7.50;;;;;;;4.20;60.57;100990.25;4993747;28;114632;-80
2023/12/04 04:34:41;;;;;;;15.68;8.00;;;;;;;4.21;60.81;100986.75;4992332;28;115219;-80
2023/12/04 04:37:08;;;;;;;18.17;8.02;;;;;;;4.20;60.53;100993.75;4990473;28;125701;-80
2023/12/04 04:39:35;;;;;;;17.27;8.13;;;;;;;4.20;60.60;100982.38;4972527;28;123512;-80
2023/12/04 04:42:03;;;;;;;16.63;8.18;;;;;;;4.19;60.49;100980.66;5012158;28;114101;-80
2023/12/04 04:44:30;;;;;;;15.60;7.32;;;;;;;4.21;60.48;100976.25;4990237;28;114189;-80
2023/12/04 04:46:57;;;;;;;16.65;7.68;;;;;;;4.22;60.86;100975.34;4982404;28;124199;-80
2023/12/04 04:49:24;;;;;;;14.65;7.45;;;;;;;4.21;60.34;100971.88;5012801;28;124173;-80
2023/12/04 04:51:51;;;;;;;16.45;7.57;;;;;;;4.19;60.55;100976.28;4993384;28;113957;-80
2023/12/04 04:54:18;;;;;;;17.20;7.13;;;;;;;4.20;60.28;100979.75;5017892;28;113906;-80
2023/12/04 04:56:45;;;;;;;16.52;7.65;;;;;;;4.20;60.38;100964.03;4977366;28;124768;-80
2023/12/04 04:59:13;;;;;;;14.77;7.45;;;;;;;4.17;60.31;100974.59;5000060;28;124204;-80
2023/12/04 05:01:40;;;;;;;15.25;7.35;;;;;;;4.19;60.37;100963.16;4976916;28;115268;-80
2023/12/04 05:04:07;;;;;;;16.10;7.55;;;;;;;4.18;60.26;100957.94;5010921;28;114452;-80
2023/12/04 05:06:34;;;;;;;15.80;7.45;;;;;;;4.18;60.44;100965.81;4993887;28;122905;-79
2023/12/04 05:09:02;;;;;;;14.85;7.38;;;;;;;4.17;60.16;100958.84;4976685;28;124320;-80
2023/12/04 05:11:30;;;;;;;12.77;7.03;;;;;;;4.18;60.35;100965.81;4993677;28;113767;-80
2023/12/04 05:13:57;;;;;;;13.45;6.43;;;;;;;4.17;60.46;100964.09;4989538;28;114328;-80
2023/12/04 05:16:24;;;;;;;13.27;6.88;;;;;;;4.16;60.22;100957.97;4996331;28;123145;-80
2023/12/04 05:18:51;;;;;;;15.70;7.35;;;;;;;4.18;60.09;100965.81;4996790;28;123801;-80
2023/12/04 05:21:18;;;;;;;13.85;7.30;;;;;;;4.18;60.45;100965.81;4997292;28;115820;-80
2023/12/04 05:23:45;;;;;;;15.77;7.70;;;;;;;4.18;60.07;100960.56;4980050;28;113868;-80
2023/12/04 05:26:13;;;;;;;13.55;7.63;;;;;;;4.18;60.00;100963.19;4978306;28;125378;-80
2023/12/04 05:28:40;;;;;;;14.70;7.03;;;;;;;4.19;60.12;100957.06;4973934;28;122177;-80
2023/12/04 05:31:07;;;;;;;12.68;6.65;;;;;;;4.19;60.43;100954.44;4995877;28;115230;-80
2023/12/04 05:33:34;;;;;;;15.30;7.28;;;;;;;4.21;60.01;100955.28;4991558;28;113378;-80
2023/12/04 05:36:02;;;;;;;13.90;6.93;;;;;;;4.21;60.28;100952.66;4987889;28;124729;-80
2023/12/04 05:38:29;;;;;;;12.70;6.47;;;;;;;4.22;59.99;100951.75;4991796;28;123907;-79
2023/12/04 05:40:56;;;;;;;16.15;7.55;;;;;;;4.22;60.24;100946.50;4993621;28;114828;-80
2023/12/04 05:43:24;;;;;;;14.82;6.90;;;;;;;4.22;60.00;100947.41;4995306;28;114242;-80
2023/12/04 05:45:51;;;;;;;14.68;7.15;;;;;;;4.22;59.90;100936.03;4984365;28;122058;-80
2023/12/04 05:48:19;;;;;;;15.45;7.28;;;;;;;4.21;60.14;100936.94;5009741;28;123425;-80
2023/12/04 05:50:46;;;;;;;15.70;7.03;;;;;;;4.22;59.74;100930.78;5002185;28;113699;-80
2023/12/04 05:53:13;;;;;;;12.00;6.63;;;;;;;4.22;60.23;100925.53;5008131;28;114117;-80
2023/12/04 05:55:40;;;;;;;13.13;6.32;;;;;;;4.23;60.14;100922.03;4998746;28;125843;-80
2023/12/04 05:58:07;;;;;;;13.60;6.93;;;;;;;4.24;59.63;100913.31;5012116;28;124274;-80
2023/12/04 06:00:34;;;;;;;14.25;6.70;;;;;;;4.24;59.98;100913.31;4992794;28;114074;-80
2023/12/04 06:03:02;;;;;;;13.88;6.75;;;;;;;4.25;59.95;100920.25;4979414;28;113693;-80
2023/12/04 06:05:29;;;;;;;12.68;6.10;;;;;;;4.26;60.00;100906.28;4994473;28;123117;-80
2023/12/04 06:07:57;;;;;;;13.13;6.55;;;;;;;4.25;60.11;100909.78;5008619;28;123792;-80
2023/12/04 06:10:25;;;;;;;12.70;6.10;;;;;;;4.26;59.67;100907.13;5002307;28;115536;-80
2023/12/04 06:12:52;;;;;;;14.98;6.53;;;;;;;4.26;59.96;100916.75;4998101;28;113999;-80
2023/12/04 06:15:19;;;;;;;13.50;6.35;;;;;;;4.28;59.87;100909.72;4984618;28;123742;-80
2023/12/04 06:17:46;;;;;;;12.27;6.72;;;;;;;4.29;60.08;100916.69;5003576;28;124541;-80
2023/12/04 06:20:14;;;;;;;11.60;6.30;;;;;;;4.30;59.91;100907.94;4994439;28;113908;-79
2023/12/04 06:22:41;;;;;;;13.73;6.50;;;;;;;4.33;59.69;100902.63;5008248;28;113632;-80
2023/12/04 06:25:09;;;;;;;12.40;6.25;;;;;;;4.35;59.89;100895.63;4971971;28;124147;-80
2023/12/04 06:27:38;;;;;;;12.30;6.85;;;;;;;4.35;59.69;100898.25;4982052;28;123893;-79
2023/12/04 06:30:06;;;;;;;13.68;6.75;;;;;;;4.35;59.47;100885.13;4998661;28;115224;-80
2023/12/04 06:32:34;;;;;;;13.00;6.00;;;;;;;4.36;59.55;100876.34;5003072;28;114246;-80
2023/12/04 06:35:03;;;;;;;11.82;6.90;;;;;;;4.35;59.71;100877.25;4995043;28;123537;-79
2023/12/04 06:37:31;;;;;;;13.05;6.47;;;;;;;4.36;59.73;100865.88;4988308;28;123362;-80
2023/12/04 06:40:02;;;;;;;14.90;6.53;;;;;;;4.36;59.32;100865.88;4981421;28;114544;-80
2023/12/04 06:42:30;;;;;;;12.43;6.22;;;;;;;4.37;59.59;100857.13;4984700;28;113782;-80
2023/12/04 06:44:58;;;;;;;12.15;6.35;;;;;;;4.37;59.47;100851.88;5005670;28;124599;-80
2023/12/04 06:47:27;;;;;;;12.68;5.60;;;;;;;4.38;59.57;100852.72;5020822;28;124028;-80
2023/12/04 06:49:55;;;;;;;10.68;4.53;;;;;;;4.38;59.48;100848.34;5000862;28;114613;-80
2023/12/04 06:52:22;;;;;;;9.75;4.80;;;;;;;4.39;59.45;100846.56;5024060;28;113701;-80
2023/12/04 06:54:50;;;;;;;8.40;4.65;;;;;;;4.41;59.21;100843.06;5015071;28;124433;-80
2023/12/04 06:57:17;;;;;;;12.40;4.72;;;;;;;4.41;59.55;100837.81;4994857;28;124226;-79
2023/12/04 06:59:44;;;;;;;12.52;5.10;;;;;;;4.42;59.35;100826.41;4977432;28;115643;-80
2023/12/04 07:02:11;;;;;;;11.35;5.45;;;;;;;4.42;59.37;100823.78;4993405;28;114031;-80
2023/12/04 07:04:39;;;;;;;11.55;5.57;;;;;;;4.42;59.22;100823.78;4994335;28;124180;-79
2023/12/04 07:07:07;;;;;;;10.02;4.30;;;;;;;4.43;59.77;100820.28;4977783;28;124249;-79
2023/12/04 07:09:34;;;;;;;5.60;3.22;;;;;;;4.44;59.47;100816.75;5013350;28;114256;-79
2023/12/04 07:12:02;;;;;;;7.85;4.75;;;;;;;4.45;59.42;100813.25;4994043;28;113448;-79
2023/12/04 07:14:30;;;;;;;10.98;4.18;;;;;;;4.44;59.64;100806.25;4992593;28;123548;-79
2023/12/04 07:16:57;;;;;;;14.73;4.25;;;;;;;4.44;59.45;100806.25;4998562;28;122453;-79
2023/12/04 07:19:25;;;;;;;8.88;3.55;;;;;;;4.44;59.15;100808.88;5006554;28;113996;-80
2023/12/04 07:21:52;;;;;;;8.82;3.95;;;;;;;4.45;59.33;100808.00;4996343;28;113629;-79
2023/12/04 07:24:20;;;;;;;8.27;3.70;;;;;;;4.46;59.21;100796.63;4972462;28;125935;-80
2023/12/04 07:26:47;;;;;;;9.68;4.03;;;;;;;4.46;59.24;100799.25;5000560;28;125042;-79
2023/12/04 07:29:14;;;;;;;9.68;4.18;;;;;;;4.46;59.51;100804.50;4999958;28;115014;-79
2023/12/04 07:31:42;;;;;;;7.93;4.03;;;;;;;4.49;59.46;100793.06;5021797;28;112984;-78
2023/12/04 07:34:09;;;;;;;9.93;4.50;;;;;;;4.48;59.23;100792.22;5013982;28;123867;-78
2023/12/04 07:36:36;;;;;;;7.38;3.90;;;;;;;4.46;59.44;100790.50;4978792;28;125006;-77
2023/12/04 07:39:06;;;;;;;7.28;4.00;;;;;;;4.45;59.25;100828.97;4978529;28;114517;-78
2023/12/04 07:41:33;;;;;;;11.65;4.28;;;;;;;4.44;59.35;100816.75;5013293;28;114260;-78
2023/12/04 07:44:00;;;;;;;8.65;3.75;;;;;;;4.46;59.45;100820.25;5014236;28;123874;-78
2023/12/04 07:46:27;;;;;;;8.65;3.85;;;;;;;4.45;59.46;100818.50;5024430;28;124655;-78
2023/12/04 07:48:55;;;;;;;10.75;4.10;;;;;;;4.46;59.39;100820.25;4990952;28;115967;-78
2023/12/04 07:51:23;;;;;;;9.45;4.20;;;;;;;4.48;59.16;100813.19;4999412;28;113937;-78
2023/12/04 07:53:50;;;;;;;10.07;4.63;;;;;;;4.49;59.35;100814.91;4995104;28;123529;-78
2023/12/04 07:56:17;;;;;;;10.57;4.13;;;;;;;4.51;58.96;100807.00;4986195;28;122615;-78
2023/12/04 07:58:44;;;;;;;9.63;4.22;;;;;;;4.51;59.44;100807.00;4999472;28;114474;-78
2023/12/04 08:01:11;;;;;;;7.53;3.75;;;;;;;4.52;59.52;100807.88;4987422;28;112586;-78
2023/12/04 08:03:38;;;;;;;8.20;4.10;;;;;;;4.54;59.30;100816.56;4995294;28;122985;-78
2023/12/04 08:06:06;;;;;;;8.32;3.75;;;;;;;4.55;59.32;100802.56;4997345;28;123978;-79
2023/12/04 08:08:33;;;;;;;10.40;3.67;;;;;;;4.56;59.24;100793.78;5013247;28;114547;-78
2023/12/04 08:11:00;;;;;;;8.55;3.83;;;;;;;4.56;59.23;100797.31;5007812;28;113399;-78
2023/12/04 08:13:27;;;;;;;10.02;4.20;;;;;;;4.58;59.19;100794.66;5008776;28;123391;-78
2023/12/04 08:15:54;;;;;;;10.80;4.00;;;;;;;4.60;59.25;100785.00;4995984;28;124857;-78
2023/12/04 08:18:22;;;;;;;9.32;4.18;;;;;;;4.62;59.45;100783.19;4993962;28;114330;-78
2023/12/04 08:20:49;;;;;;;7.53;3.95;;;;;;;4.66;59.48;100776.97;4993234;28;113927;-78
2023/12/04 08:23:16;;;;;;;7.65;3.80;;;;;;;4.69;59.42;100779.53;4980007;28;125202;-78
2023/12/04 08:25:44;;;;;;;7.97;3.83;;;;;;;4.72;59.28;100787.34;4995175;28;125143;-78
2023/12/04 08:28:11;;;;;;;10.38;4.47;;;;;;;4.75;59.15;100784.66;4985951;28;114415;-78
2023/12/04 08:30:38;;;;;;;10.88;4.05;;;;;;;4.77;59.24;100771.50;5006401;28;114874;-78
2023/12/04 08:33:06;;;;;;;9.55;4.35;;;;;;;4.80;59.25;100764.44;4999841;28;124279;-78
2023/12/04 08:35:33;;;;;;;9.40;3.40;;;;;;;4.82;59.47;100770.50;4978105;28;123992;-78
2023/12/04 08:38:00;;;;;;;9.18;3.95;;;;;;;4.84;59.22;100773.94;4982690;28;114181;-78
2023/12/04 08:40:28;;;;;;;9.68;4.57;;;;;;;4.85;59.14;100767.78;4996309;28;114570;-79
2023/12/04 08:42:55;;;;;;;7.88;3.55;;;;;;;4.87;59.07;100759.88;4992611;28;125137;-78
2023/12/04 08:45:22;;;;;;;9.30;4.32;;;;;;;4.88;58.98;100759.84;4998354;28;123811;-79
2023/12/04 08:47:49;;;;;;;9.18;4.10;;;;;;;4.91;58.97;100752.81;4983411;28;115210;-79
2023/12/04 08:50:17;;;;;;;9.85;4.32;;;;;;;4.92;59.08;100754.56;5009477;28;113710;-79
2023/12/04 08:52:44;;;;;;;9.15;3.85;;;;;;;4.93;58.93;100748.38;4991959;28;123890;-79
2023/12/04 08:55:12;;;;;;;10.82;4.10;;;;;;;4.94;58.71;100737.88;5017072;28;123687;-79
2023/12/04 08:57:39;;;;;;;9.57;4.15;;;;;;;4.95;58.82;100733.47;4996989;28;113348;-78
2023/12/04 09:00:08;;;;;;;9.35;4.20;;;;;;;4.96;58.75;100737.84;4989264;28;112921;-78
2023/12/04 09:02:36;;;;;;;7.47;4.10;;;;;;;4.97;58.98;100731.66;5003578;28;123747;-79
2023/12/04 09:05:12;;;;;;;10.48;4.28;;;;;;;4.99;58.62;100727.25;5002400;28;123441;-79
2023/12/04 09:07:40;;;;;;;12.52;4.53;;;;;;;5.00;59.08;100726.34;5010650;28;113476;-79
2023/12/04 09:10:27;;;;;;;8.95;4.45;;;;;;;5.02;58.94;100725.41;4991643;28;114640;-80
2023/12/04 09:13:15;;;;;;;7.90;4.15;;;;;;;5.04;58.83;100728.00;4990820;28;123635;-78
2023/12/04 09:15:42;;;;;;;11.40;4.60;;;;;;;5.03;58.81;100726.28;4995674;28;124087;-79
2023/12/04 09:18:09;;;;;;;9.68;4.07;;;;;;;5.03;58.88;100727.16;4986066;28;113231;-80
2023/12/04 09:20:37;;;;;;;13.15;4.85;;;;;;;5.05;58.74;100724.50;5008473;28;113593;-79
2023/12/04 09:23:04;;;;;;;10.73;4.53;;;;;;;5.03;58.75;100714.03;4992022;28;125099;-79
2023/12/04 09:25:36;;;;;;;9.25;4.50;;;;;;;5.05;58.63;100719.25;5006404;28;123642;-79
2023/12/04 09:28:04;;;;;;;9.18;4.50;;;;;;;5.06;58.72;100720.94;4996411;28;115828;-79
2023/12/04 09:30:31;;;;;;;9.93;4.90;;;;;;;5.05;58.82;100717.47;5020282;28;114199;-78
2023/12/04 09:32:58;;;;;;;10.27;4.57;;;;;;;5.05;58.73;100714.00;4979922;28;124971;-79
2023/12/04 09:35:25;;;;;;;13.15;5.30;;;;;;;5.05;58.96;100708.75;5001881;28;124037;-79
2023/12/04 09:37:54;;;;;;;8.30;4.43;;;;;;;5.05;58.86;100714.00;4978563;28;113051;-79
2023/12/04 09:40:21;;;;;;;12.13;5.38;;;;;;;5.08;58.79;100713.91;5012042;28;113967;-79
2023/12/04 09:42:48;;;;;;;13.40;4.90;;;;;;;5.08;58.85;100716.53;5010971;28;124348;-79
2023/12/04 09:45:17;;;;;;;9.95;4.85;;;;;;;5.10;58.75;100711.25;5016274;28;123827;-78
2023/12/04 09:47:47;;;;;;;12.02;5.40;;;;;;;5.11;58.37;100708.59;4990309;28;115297;-79
2023/12/04 09:50:20;;;;;;;12.48;5.18;;;;;;;5.11;58.36;100708.59;4985304;28;114364;-79
2023/12/04 09:52:50;;;;;;;15.93;5.93;;;;;;;5.12;58.73;100699.78;5003790;28;123368;-78
2023/12/04 09:55:17;;;;;;;11.82;5.03;;;;;;;5.13;58.80;100700.69;4978682;28;125579;-78
2023/12/04 09:57:45;;;;;;;11.88;5.22;;;;;;;5.15;58.62;100704.13;4963758;28;113757;-78
2023/12/04 10:00:14;;;;;;;11.15;5.70;;;;;;;5.15;58.68;100699.72;5012508;28;113817;-79
2023/12/04 10:02:42;;;;;;;13.80;5.72;;;;;;;5.16;58.56;100701.47;4980566;28;123129;-79
2023/12/04 10:05:09;;;;;;;11.95;5.40;;;;;;;5.17;58.59;100695.31;5001661;28;123886;-79
2023/12/04 10:07:37;;;;;;;13.50;5.28;;;;;;;5.19;58.81;100701.38;4992680;28;115084;-79
2023/12/04 10:10:06;;;;;;;14.60;5.63;;;;;;;5.20;58.62;100697.00;4972815;28;113473;-79
2023/12/04 10:12:35;;;;;;;11.23;5.43;;;;;;;5.21;58.54;100699.56;5002373;28;125573;-78
2023/12/04 10:15:03;;;;;;;14.05;5.68;;;;;;;5.22;58.53;100690.81;5009027;28;124180;-79
2023/12/04 10:17:38;;;;;;;15.48;5.10;;;;;;;5.24;58.35;100682.91;4992124;28;116086;-79
2023/12/04 10:20:12;;;;;;;10.98;5.03;;;;;;;5.26;58.40;100681.94;5010551;28;114129;-79
2023/12/04 10:22:51;;;;;;;12.02;5.32;;;;;;;5.30;58.74;100687.13;4990057;28;124368;-79
2023/12/04 10:25:19;;;;;;;12.90;5.60;;;;;;;5.32;58.54;100675.66;5003366;28;124839;-78
2023/12/04 10:27:47;;;;;;;12.95;5.45;;;;;;;5.35;58.63;100679.97;5010482;28;114305;-79
2023/12/04 10:30:23;;;;;;;23.45;5.70;;;;;;;5.36;58.35;100665.94;4978660;28;112248;-78
2023/12/04 10:33:00;;;;;;;11.98;5.57;;;;;;;5.38;58.40;100659.75;5000448;28;124881;-79
2023/12/04 10:35:30;;;;;;;13.43;6.07;;;;;;;5.39;58.38;100665.88;4979904;28;125800;-79
2023/12/04 10:38:02;;;;;;;11.20;5.25;;;;;;;5.40;58.46;100657.94;5015737;28;114548;-79
2023/12/04 10:40:31;;;;;;;12.63;5.60;;;;;;;5.42;58.54;100647.41;4996277;28;113862;-78
2023/12/04 10:43:14;;;;;;;10.70;4.72;;;;;;;5.45;58.61;100644.69;4978315;28;122913;-78
2023/12/04 10:45:43;;;;;;;13.75;5.75;;;;;;;5.48;58.28;100649.84;4989095;28;125075;-78
2023/12/04 10:48:11;;;;;;;13.00;5.50;;;;;;;5.51;58.34;100643.66;4978606;28;115165;-79
2023/12/04 10:50:40;;;;;;;10.40;4.90;;;;;;;5.51;58.62;100634.00;4988337;28;114711;-79
2023/12/04 10:53:09;;;;;;;12.52;5.28;;;;;;;5.52;58.55;100627.88;4992180;28;124460;-79
2023/12/04 10:55:37;;;;;;;11.68;5.13;;;;;;;5.55;58.39;100625.13;4990225;28;123578;-78
2023/12/04 10:58:12;;;;;;;13.23;4.85;;;;;;;5.56;58.01;100616.38;5012137;28;114559;-79
2023/12/04 11:00:44;;;;;;;12.00;5.18;;;;;;;5.56;58.21;100616.38;5014467;28;114149;-79
2023/12/04 11:03:20;;;;;;;12.00;5.05;;;;;;;5.57;58.32;100617.22;5006635;28;123315;-79
2023/12/04 11:05:52;;;;;;;12.00;5.07;;;;;;;5.60;58.28;100596.97;4966617;28;124011;-79
2023/12/04 11:08:20;;;;;;;14.10;5.85;;;;;;;5.64;58.56;100597.75;5002201;28;115209;-79
2023/12/04 11:10:59;;;;;;;10.25;5.15;;;;;;;5.65;58.24;100600.34;4974626;28;114581;-79
2023/12/04 11:13:41;;;;;;;9.52;4.60;;;;;;;5.67;58.27;100587.16;4971476;28;125086;-78
2023/12/04 11:16:20;;;;;;;9.90;4.32;;;;;;;5.69;58.34;100589.72;4990130;28;123511;-79
2023/12/04 11:19:00;;;;;;;12.43;5.03;;;;;;;5.68;58.16;100572.25;4985430;28;114996;-79
2023/12/04 11:21:32;;;;;;;12.80;5.63;;;;;;;5.66;58.38;100575.78;4990075;28;115081;-78